»·PEaware :: JBU180 KPHX-KSAN

JBU180 :: KPHX-KSAN

FLIGHT INFORMATION

Flight Status: Arrived
Operator:
JetBlue Airways
More flights by this operator :: More flights under this callsign
Pilot: Etienne B. (28927)
Aircraft: AIRBUS A320
(A320)
More flights by this aircraft type
Origin: KPHX Phoenix Sky Harbor Intl
United States
Destination: KSAN San Diego Intl-Lindbergh
United States
More flights between these airports :: More routes between these airports
Route: +FYRBD1 MOHAK J2 HOGGZ LUCKI1
File this flight plan on PilotEdge
Remarks: RMK / SIMBRIEF
Altitude:
(Current/Filed)
34,000ft
Speed:
(Current/Filed)
439kts
Departed: 09-May-20 04:05 PM
Arrived: 09-May-20 04:58 PM
Distance/Time
Traveled:
264nm/0:52
Distance/Time
To Go:
Arrived

Flight Plot

Page will automatically refresh every two minutes.

Flight plan parsing failed; only flown route is shown


Map Options




Map Legend


Flown Route
Filed Route
Departure Airport
Arrival Airport
Navaid (VOR, NDB)
Fix

Horizontal Profiles

Position Reports

Time Latitude Longitude Heading Altitude Ground
Speed
09-May-20 15:48 33.433950 -112.013281 284 1125ft 0kts
09-May-20 15:49 33.433950 -112.013281 284 1125ft 0kts
09-May-20 15:50 33.433950 -112.013281 284 1125ft 0kts
09-May-20 15:51 33.433950 -112.013281 284 1125ft 0kts
09-May-20 15:52 33.433950 -112.013281 284 1125ft 0kts
09-May-20 15:53 33.433950 -112.013280 284 1125ft 0kts
09-May-20 15:54 33.433950 -112.013280 284 1125ft 0kts
09-May-20 15:55 33.433950 -112.013280 284 1125ft 0kts
09-May-20 15:56 33.433908 -112.013087 284 1125ft 2kts
09-May-20 15:57 33.433959 -112.012486 231 1126ft 2kts
09-May-20 15:58 33.434316 -112.012265 185 1127ft 0kts
09-May-20 15:59 33.434315 -112.012265 185 1127ft 0kts
09-May-20 16:00 33.433796 -112.012330 185 1127ft 8kts
09-May-20 16:00 33.432876 -112.013346 266 1125ft 9kts
09-May-20 16:01 33.432931 -112.018288 271 1121ft 17kts
09-May-20 16:03 33.432903 -112.025579 269 1117ft 18kts
09-May-20 16:03 33.431270 -112.026925 158 1115ft 8kts
09-May-20 16:04 33.431143 -112.004636 88 1134ft 177kts
09-May-20 16:05 33.431557 -111.943144 88 3450ft 200kts
09-May-20 16:06 33.428228 -111.870286 109 5192ft 255kts
09-May-20 16:07 33.367837 -111.849819 221 7970ft 254kts
09-May-20 16:08 33.354726 -111.926860 280 10428ft 265kts
09-May-20 16:09 33.362357 -112.021087 247 12161ft 308kts
09-May-20 16:10 33.306590 -112.110063 234 13220ft 361kts
09-May-20 16:11 33.243617 -112.210836 235 14467ft 387kts
09-May-20 16:12 33.179084 -112.315198 235 16146ft 395kts
09-May-20 16:13 33.113363 -112.421447 235 17698ft 402kts
09-May-20 16:14 33.045804 -112.530409 235 18928ft 415kts
09-May-20 16:15 32.976360 -112.642096 236 20097ft 426kts
09-May-20 16:16 32.942823 -112.775845 261 21311ft 429kts
09-May-20 16:17 32.923565 -112.918385 258 22116ft 448kts
09-May-20 16:18 32.903652 -113.064298 258 23671ft 443kts
09-May-20 16:19 32.883612 -113.209834 258 24712ft 450kts
09-May-20 16:20 32.863216 -113.356760 258 26128ft 445kts
09-May-20 16:21 32.843328 -113.498609 258 28081ft 428kts
09-May-20 16:22 32.823722 -113.637322 258 29579ft 422kts
09-May-20 16:23 32.804397 -113.773489 258 31061ft 414kts
09-May-20 16:24 32.785272 -113.906817 258 32534ft 404kts
09-May-20 16:25 32.775226 -114.037420 267 33856ft 397kts
09-May-20 16:26 32.779084 -114.172265 270 33882ft 421kts
09-May-20 16:27 32.784647 -114.313329 270 33881ft 428kts
09-May-20 16:28 32.805588 -114.452057 285 33880ft 431kts
09-May-20 16:29 32.842263 -114.585303 285 33298ft 412kts
09-May-20 16:30 32.876266 -114.712808 277 32446ft 401kts
09-May-20 16:31 32.876806 -114.843854 266 31600ft 394kts
09-May-20 16:32 32.873861 -114.973107 266 30740ft 390kts
09-May-20 16:33 32.870868 -115.100174 267 29896ft 379kts
09-May-20 16:34 32.867828 -115.223871 268 28623ft 367kts
09-May-20 16:35 32.864138 -115.343257 264 26946ft 357kts
09-May-20 16:36 32.848500 -115.457954 261 25301ft 347kts
09-May-20 16:37 32.831202 -115.568849 260 23709ft 336kts
09-May-20 16:38 32.813558 -115.676066 259 22156ft 327kts
09-May-20 16:39 32.796319 -115.780683 259 20618ft 318kts
09-May-20 16:40 32.782575 -115.883266 265 19108ft 310kts
09-May-20 16:41 32.775050 -115.984145 265 17637ft 303kts
09-May-20 16:42 32.767563 -116.083420 265 16185ft 299kts
09-May-20 16:43 32.760134 -116.180866 265 14765ft 293kts
09-May-20 16:44 32.752819 -116.275850 265 13454ft 285kts
09-May-20 16:45 32.745665 -116.368227 265 12175ft 277kts
09-May-20 16:46 32.738626 -116.458353 265 10895ft 272kts
09-May-20 16:47 32.730920 -116.547469 264 9608ft 268kts
09-May-20 16:48 32.722395 -116.634715 264 8355ft 264kts
09-May-20 16:49 32.715060 -116.721251 265 7101ft 263kts
09-May-20 16:50 32.709243 -116.795655 265 6165ft 256kts
09-May-20 16:51 32.690414 -116.872669 250 5458ft 236kts
09-May-20 16:52 32.674081 -116.946026 286 4379ft 232kts
09-May-20 16:53 32.693215 -117.019103 285 3231ft 234kts
09-May-20 16:54 32.706945 -117.082624 286 1913ft 173kts
09-May-20 16:55 32.719438 -117.131840 286 1119ft 148kts
09-May-20 16:56 32.730975 -117.179039 286 96ft 145kts
09-May-20 16:57 32.735239 -117.197978 250 26ft 10kts
09-May-20 16:58 32.735164 -117.198190 247 26ft 1kts
09-May-20 16:59 32.735147 -117.200620 283 26ft 15kts
09-May-20 17:00 32.734240 -117.202963 260 26ft 1kts

Navigation Log

Ident Type
Flight plan parsing failed, navigation log unavailable